createdAt,value
2022-08-28T00:01:41.517Z,99.86
2022-08-28T00:04:43.323Z,99.81
2022-08-28T00:07:47.786Z,100.00
2022-08-28T00:10:50.049Z,100.00
2022-08-28T00:13:51.929Z,100.00
2022-08-28T00:16:54.709Z,100.00
2022-08-28T00:19:56.387Z,100.00
2022-08-28T00:23:00.308Z,100.00
2022-08-28T00:26:02.283Z,100.00
2022-08-28T00:29:06.071Z,100.00
2022-08-28T00:32:08.868Z,100.00
2022-08-28T00:35:11.435Z,100.00
2022-08-28T00:38:14.157Z,100.00
2022-08-28T00:41:16.839Z,100.00
2022-08-28T00:44:28.930Z,100.00
2022-08-28T00:47:30.676Z,100.00
2022-08-28T00:50:54.422Z,99.97
2022-08-28T00:54:07.346Z,100.00
2022-08-28T00:57:13.283Z,100.00
2022-08-28T01:00:23.104Z,100.00
2022-08-28T01:03:26.577Z,100.00
2022-08-28T01:06:28.467Z,100.00
2022-08-28T01:09:31.949Z,100.00
2022-08-28T01:12:35.040Z,100.00
2022-08-28T01:15:38.562Z,100.00
2022-08-28T01:18:42.007Z,100.00
2022-08-28T01:21:55.408Z,100.00
2022-08-28T01:24:59.441Z,100.00
2022-08-28T01:28:03.467Z,100.00
2022-08-28T01:31:05.429Z,100.00
2022-08-28T01:34:10.465Z,100.00
2022-08-28T01:37:12.291Z,100.00
2022-08-28T01:40:20.411Z,100.00
2022-08-28T01:43:24.279Z,100.00
2022-08-28T01:46:26.098Z,100.00
2022-08-28T01:49:29.501Z,100.00
2022-08-28T01:52:31.521Z,100.00
2022-08-28T01:55:35.839Z,100.00
2022-08-28T01:58:39.551Z,100.00
2022-08-28T02:01:42.558Z,100.00
2022-08-28T02:04:48.051Z,100.00
2022-08-28T02:07:50.896Z,100.00
2022-08-28T02:10:52.950Z,100.00
2022-08-28T02:13:54.658Z,100.00
2022-08-28T02:16:58.304Z,100.00
2022-08-28T02:20:00.250Z,100.00
2022-08-28T02:23:02.721Z,100.00
2022-08-28T02:26:04.316Z,100.00
2022-08-28T02:29:06.440Z,100.00
2022-08-28T02:32:08.217Z,100.00
2022-08-28T02:35:13.253Z,100.00
2022-08-28T02:38:14.911Z,100.00
2022-08-28T02:41:16.874Z,100.00
2022-08-28T02:44:18.672Z,100.00
2022-08-28T02:47:20.714Z,100.00
2022-08-28T02:50:24.064Z,100.00
2022-08-28T02:53:25.629Z,100.00
2022-08-28T02:56:27.729Z,100.00
2022-08-28T02:59:30.323Z,100.00
2022-08-28T03:02:32.414Z,100.00
2022-08-28T03:05:34.177Z,100.00
2022-08-28T03:08:35.991Z,100.00
2022-08-28T03:11:38.011Z,100.00
2022-08-28T03:14:39.914Z,100.00
2022-08-28T03:17:41.984Z,100.00
2022-08-28T03:20:44.889Z,100.00
2022-08-28T03:23:47.346Z,100.00
2022-08-28T03:26:48.994Z,100.00
2022-08-28T03:29:50.681Z,100.00
2022-08-28T03:32:52.886Z,100.00
2022-08-28T03:35:55.613Z,100.00
2022-08-28T03:39:00.517Z,100.00
2022-08-28T03:42:02.139Z,100.00
2022-08-28T03:45:06.703Z,100.00
2022-08-28T03:48:08.393Z,100.00
2022-08-28T03:51:14.321Z,100.00
2022-08-28T03:54:17.048Z,100.00
2022-08-28T03:57:23.089Z,100.00
2022-08-28T04:00:24.963Z,100.00
2022-08-28T04:03:26.702Z,100.00
2022-08-28T04:06:29.012Z,100.00
2022-08-28T04:09:30.729Z,100.00
2022-08-28T04:12:35.236Z,100.00
2022-08-28T04:15:37.381Z,100.00
2022-08-28T04:18:41.491Z,100.00
2022-08-28T04:21:43.083Z,100.00
2022-08-28T04:24:45.946Z,100.00
2022-08-28T04:27:48.642Z,100.00
2022-08-28T04:30:56.267Z,100.00
2022-08-28T04:33:59.390Z,100.00
2022-08-28T04:37:01.033Z,100.00
2022-08-28T04:40:07.852Z,100.00
2022-08-28T04:43:09.794Z,100.00
2022-08-28T04:46:14.863Z,100.00
2022-08-28T04:49:17.004Z,100.00
2022-08-28T04:52:18.722Z,100.00
2022-08-28T04:55:33.823Z,100.00
2022-08-28T04:58:44.174Z,100.00
2022-08-28T05:01:46.652Z,100.00
2022-08-28T05:04:48.434Z,100.00
2022-08-28T05:07:50.544Z,100.00
2022-08-28T05:10:53.133Z,100.00
2022-08-28T05:13:55.935Z,100.00
2022-08-28T05:16:58.489Z,100.00
2022-08-28T05:20:00.078Z,100.00
2022-08-28T05:23:01.682Z,100.00
2022-08-28T05:26:03.592Z,100.00
2022-08-28T05:29:05.636Z,100.00
2022-08-28T05:32:07.472Z,100.00
2022-08-28T05:35:09.313Z,100.00
2022-08-28T05:38:12.910Z,100.00
2022-08-28T05:41:23.123Z,100.00
2022-08-28T05:44:24.945Z,100.00
2022-08-28T05:47:26.623Z,100.00
2022-08-28T05:50:28.280Z,100.00
2022-08-28T05:53:30.276Z,100.00
2022-08-28T05:56:35.774Z,100.00
2022-08-28T05:59:37.749Z,100.00
2022-08-28T06:02:44.501Z,100.00
2022-08-28T06:05:46.188Z,98.96
2022-08-28T06:08:58.639Z,99.08
2022-08-28T06:12:02.742Z,96.64
2022-08-28T06:15:05.578Z,96.77
2022-08-28T06:18:07.213Z,96.10
2022-08-28T06:21:09.258Z,95.75
2022-08-28T06:24:12.037Z,95.10
2022-08-28T06:27:13.815Z,95.46
2022-08-28T06:30:15.727Z,95.42
2022-08-28T06:33:18.519Z,93.36
2022-08-28T06:36:20.137Z,92.92
2022-08-28T06:39:23.152Z,91.77
2022-08-28T06:42:25.372Z,89.31
2022-08-28T06:45:27.597Z,90.05
2022-08-28T06:48:29.361Z,89.28
2022-08-28T06:51:31.112Z,89.35
2022-08-28T06:54:32.933Z,87.83
2022-08-28T06:57:34.758Z,87.17
2022-08-28T07:00:37.216Z,87.58
2022-08-28T07:03:44.077Z,86.90
2022-08-28T07:06:53.821Z,86.92
2022-08-28T07:09:56.389Z,88.44
2022-08-28T07:13:00.610Z,88.58
2022-08-28T07:16:03.040Z,88.06
2022-08-28T07:19:10.441Z,86.67
2022-08-28T07:22:12.547Z,85.27
2022-08-28T07:25:14.167Z,85.37
2022-08-28T07:28:17.075Z,84.95
2022-08-28T07:31:22.970Z,86.17
2022-08-28T07:34:27.167Z,85.18
2022-08-28T07:37:29.063Z,86.58
2022-08-28T07:40:31.609Z,87.25
2022-08-28T07:43:51.582Z,89.60
2022-08-28T07:46:55.021Z,90.09
2022-08-28T07:49:57.708Z,89.70
2022-08-28T07:52:59.825Z,89.59
2022-08-28T07:56:01.797Z,88.43
2022-08-28T07:59:03.854Z,86.24
2022-08-28T08:02:06.926Z,84.22
2022-08-28T08:05:10.371Z,82.93
2022-08-28T08:08:16.064Z,82.92
2022-08-28T08:11:18.797Z,83.36
2022-08-28T08:14:21.391Z,80.95
2022-08-28T08:17:23.116Z,81.12
2022-08-28T08:20:24.942Z,79.96
2022-08-28T08:23:26.839Z,78.44
2022-08-28T08:26:29.676Z,75.34
2022-08-28T08:29:35.969Z,76.29
2022-08-28T08:32:40.078Z,73.73
2022-08-28T08:35:42.043Z,73.02
2022-08-28T08:38:44.777Z,73.59
2022-08-28T08:41:53.648Z,73.45
2022-08-28T08:44:59.074Z,73.25
2022-08-28T08:48:01.309Z,74.35
2022-08-28T08:51:19.799Z,73.36
2022-08-28T08:54:22.018Z,72.44
2022-08-28T08:57:24.921Z,71.27
2022-08-28T09:00:28.071Z,69.34
2022-08-28T09:03:57.264Z,67.64
2022-08-28T09:07:21.199Z,67.05
2022-08-28T09:10:24.981Z,68.50
2022-08-28T09:14:05.446Z,68.52
2022-08-28T09:17:08.581Z,67.21
2022-08-28T09:20:15.501Z,65.41
2022-08-28T09:23:17.796Z,66.57
2022-08-28T09:26:25.415Z,66.96
2022-08-28T09:29:45.008Z,66.81
2022-08-28T09:33:00.898Z,63.75
2022-08-28T09:36:32.072Z,65.04
2022-08-28T09:39:35.957Z,66.39
2022-08-28T09:42:56.493Z,64.61
2022-08-28T09:46:16.592Z,63.41
2022-08-28T09:49:31.092Z,61.89
2022-08-28T09:52:34.252Z,62.35
2022-08-28T09:55:54.898Z,63.60
2022-08-28T09:59:02.294Z,63.89
2022-08-28T10:02:37.286Z,61.50
2022-08-28T10:05:52.168Z,60.93
2022-08-28T10:09:22.575Z,62.87
2022-08-28T10:12:49.252Z,62.16
2022-08-28T10:16:16.848Z,59.39
2022-08-28T10:19:48.195Z,58.99
2022-08-28T10:23:07.577Z,59.01
2022-08-28T10:26:21.494Z,59.73
2022-08-28T10:29:51.082Z,60.20
2022-08-28T10:33:17.551Z,59.18
2022-08-28T10:36:33.488Z,59.25
2022-08-28T10:40:02.247Z,58.85
2022-08-28T10:43:48.027Z,59.70
2022-08-28T10:46:55.576Z,59.95
2022-08-28T10:50:02.926Z,58.95
2022-08-28T10:53:15.257Z,60.28
2022-08-28T10:56:30.903Z,58.45
2022-08-28T10:59:33.593Z,58.48
2022-08-28T11:02:57.243Z,56.40
2022-08-28T11:06:04.250Z,55.01
2022-08-28T11:09:26.687Z,56.20
2022-08-28T11:12:28.418Z,53.70
2022-08-28T11:15:37.013Z,54.85
2022-08-28T11:18:53.202Z,55.98
2022-08-28T11:22:01.050Z,56.04
2022-08-28T11:25:26.648Z,55.34
2022-08-28T11:28:34.755Z,55.14
2022-08-28T11:31:39.694Z,54.57
2022-08-28T11:34:58.848Z,54.51
2022-08-28T11:38:00.495Z,54.54
2022-08-28T11:41:17.560Z,54.34
2022-08-28T11:44:28.419Z,54.85
2022-08-28T11:47:36.194Z,54.19
2022-08-28T11:51:02.504Z,54.52
2022-08-28T11:54:42.742Z,53.42
2022-08-28T11:58:16.164Z,52.00
2022-08-28T12:01:29.436Z,51.61
2022-08-28T12:04:42.674Z,52.31
2022-08-28T12:07:50.326Z,51.05
2022-08-28T12:10:54.624Z,50.95
2022-08-28T12:13:56.536Z,50.28
2022-08-28T12:17:01.487Z,49.82
2022-08-28T12:20:41.567Z,49.63
2022-08-28T12:23:44.883Z,48.68
2022-08-28T12:26:53.314Z,48.70
2022-08-28T12:30:00.995Z,49.26
2022-08-28T12:33:32.119Z,49.13
2022-08-28T12:36:33.999Z,48.46
2022-08-28T12:39:38.085Z,47.32
2022-08-28T12:43:05.627Z,48.07
2022-08-28T12:46:19.727Z,47.75
2022-08-28T12:49:37.886Z,47.25
2022-08-28T12:52:48.467Z,46.66
2022-08-28T12:55:50.205Z,46.82
2022-08-28T12:58:52.530Z,46.87
2022-08-28T13:01:54.518Z,45.63
2022-08-28T13:05:06.665Z,44.51
2022-08-28T13:08:11.593Z,44.74
2022-08-28T13:11:19.539Z,43.17
2022-08-28T13:14:38.400Z,44.85
2022-08-28T13:17:50.015Z,42.67
2022-08-28T13:20:51.774Z,42.05
2022-08-28T13:23:56.677Z,43.99
2022-08-28T13:27:19.367Z,43.57
2022-08-28T13:30:33.537Z,44.11
2022-08-28T13:33:35.282Z,43.09
2022-08-28T13:36:59.852Z,44.24
2022-08-28T13:40:05.514Z,43.37
2022-08-28T13:43:11.689Z,43.16
2022-08-28T13:46:14.025Z,43.12
2022-08-28T13:49:16.948Z,43.40
2022-08-28T13:52:19.221Z,42.70
2022-08-28T13:55:22.099Z,41.29
2022-08-28T13:58:27.057Z,42.88
2022-08-28T14:01:48.936Z,42.49
2022-08-28T14:04:50.882Z,42.13
2022-08-28T14:07:52.985Z,42.33
2022-08-28T14:10:55.076Z,42.41
2022-08-28T14:13:56.729Z,42.85
2022-08-28T14:16:59.342Z,42.50
2022-08-28T14:20:01.680Z,42.13
2022-08-28T14:23:03.259Z,43.70
2022-08-28T14:26:05.984Z,42.57
2022-08-28T14:29:10.022Z,42.40
2022-08-28T14:32:12.787Z,42.63
2022-08-28T14:35:14.686Z,41.34
2022-08-28T14:38:17.376Z,41.77
2022-08-28T14:41:19.122Z,42.40
2022-08-28T14:44:22.623Z,42.85
2022-08-28T14:47:25.177Z,43.14
2022-08-28T14:50:27.072Z,41.77
2022-08-28T14:53:30.140Z,42.19
2022-08-28T14:56:32.556Z,41.35
2022-08-28T14:59:34.261Z,41.12
2022-08-28T15:02:36.134Z,41.13
2022-08-28T15:05:38.736Z,41.53
2022-08-28T15:08:41.593Z,40.90
2022-08-28T15:11:44.449Z,39.61
2022-08-28T15:14:54.653Z,41.01
2022-08-28T15:17:59.498Z,40.75
2022-08-28T15:21:01.244Z,40.13
2022-08-28T15:24:04.744Z,40.02
2022-08-28T15:27:07.064Z,39.93
2022-08-28T15:30:09.642Z,39.65
2022-08-28T15:33:11.667Z,39.23
2022-08-28T15:36:13.616Z,39.69
2022-08-28T15:39:34.065Z,39.67
2022-08-28T15:42:35.807Z,39.52
2022-08-28T15:45:39.226Z,39.66
2022-08-28T15:48:41.207Z,40.28
2022-08-28T15:51:42.946Z,39.29
2022-08-28T15:54:44.673Z,39.73
2022-08-28T15:57:46.804Z,40.38
2022-08-28T16:00:48.459Z,40.28
2022-08-28T16:03:50.357Z,40.99
2022-08-28T16:07:00.494Z,40.74
2022-08-28T16:10:07.167Z,41.36
2022-08-28T16:13:08.968Z,42.35
2022-08-28T16:16:10.841Z,43.35
2022-08-28T16:19:12.584Z,43.98
2022-08-28T16:22:15.943Z,42.97
2022-08-28T16:25:18.131Z,43.70
2022-08-28T16:28:19.829Z,43.86
2022-08-28T16:31:21.659Z,43.47
2022-08-28T16:34:26.091Z,43.89
2022-08-28T16:37:39.567Z,43.52
2022-08-28T16:40:43.523Z,43.64
2022-08-28T16:43:45.966Z,44.42
2022-08-28T16:46:47.863Z,43.59
2022-08-28T16:49:50.371Z,43.65
2022-08-28T16:52:52.432Z,43.71
2022-08-28T16:55:54.184Z,43.82
2022-08-28T16:58:56.991Z,43.66
2022-08-28T17:01:58.743Z,44.77
2022-08-28T17:05:01.876Z,45.05
2022-08-28T17:08:03.516Z,45.16
2022-08-28T17:11:06.658Z,46.16
2022-08-28T17:14:11.037Z,47.14
2022-08-28T17:17:12.647Z,47.90
2022-08-28T17:20:47.838Z,47.53
2022-08-28T17:23:49.761Z,47.47
2022-08-28T17:26:51.586Z,47.96
2022-08-28T17:29:53.435Z,48.18
2022-08-28T17:32:55.232Z,49.15
2022-08-28T17:35:59.667Z,49.72
2022-08-28T17:39:04.070Z,49.70
2022-08-28T17:42:06.267Z,49.63
2022-08-28T17:45:08.778Z,50.11
2022-08-28T17:48:10.436Z,50.54
2022-08-28T17:51:12.077Z,51.01
2022-08-28T17:54:17.717Z,51.21
2022-08-28T17:57:19.425Z,52.08
2022-08-28T18:00:21.318Z,53.54
2022-08-28T18:03:23.388Z,54.99
2022-08-28T18:06:25.113Z,55.95
2022-08-28T18:09:26.708Z,57.00
2022-08-28T18:12:28.776Z,58.09
2022-08-28T18:15:31.281Z,59.57
2022-08-28T18:18:36.616Z,60.83
2022-08-28T18:21:38.777Z,61.46
2022-08-28T18:24:41.039Z,62.52
2022-08-28T18:27:42.829Z,63.51
2022-08-28T18:30:45.972Z,64.01
2022-08-28T18:33:47.693Z,64.72
2022-08-28T18:36:49.348Z,65.72
2022-08-28T18:39:51.707Z,65.28
2022-08-28T18:42:55.952Z,66.23
2022-08-28T18:46:00.415Z,67.76
2022-08-28T18:49:02.258Z,66.69
2022-08-28T18:52:04.161Z,68.79
2022-08-28T18:55:07.181Z,68.10
2022-08-28T18:58:11.146Z,69.47
2022-08-28T19:01:17.326Z,68.65
2022-08-28T19:04:19.095Z,67.86
2022-08-28T19:07:20.787Z,68.02
2022-08-28T19:10:33.478Z,67.88
2022-08-28T19:13:36.343Z,69.54
2022-08-28T19:16:39.342Z,69.76
2022-08-28T19:19:40.872Z,70.83
2022-08-28T19:22:43.187Z,72.10
2022-08-28T19:28:49.256Z,73.98
2022-08-28T19:31:52.350Z,74.92
2022-08-28T19:34:54.139Z,76.23
2022-08-28T19:37:56.054Z,76.49
2022-08-28T19:40:58.176Z,76.77
2022-08-28T19:43:59.901Z,76.96
2022-08-28T19:47:01.946Z,76.95
2022-08-28T19:50:07.189Z,77.21
2022-08-28T19:53:10.008Z,77.32
2022-08-28T19:56:11.839Z,78.76
2022-08-28T19:59:13.646Z,79.52
2022-08-28T20:02:15.479Z,78.52
2022-08-28T20:05:17.552Z,78.91
2022-08-28T20:08:20.150Z,78.41
2022-08-28T20:11:30.784Z,78.66
2022-08-28T20:14:34.277Z,78.01
2022-08-28T20:17:43.846Z,79.51
2022-08-28T20:20:48.945Z,79.96
2022-08-28T20:23:50.803Z,80.53
2022-08-28T20:26:53.135Z,80.62
2022-08-28T20:29:55.328Z,81.93
2022-08-28T20:32:57.538Z,83.37
2022-08-28T20:36:04.355Z,83.38
2022-08-28T20:39:07.313Z,83.89
2022-08-28T20:42:09.878Z,84.38
2022-08-28T20:45:12.097Z,83.79
2022-08-28T20:48:14.176Z,83.59
2022-08-28T20:51:15.902Z,82.97
2022-08-28T20:54:17.758Z,84.14
2022-08-28T20:57:21.408Z,83.78
2022-08-28T21:00:25.519Z,84.54
2022-08-28T21:03:28.450Z,85.34
2022-08-28T21:06:31.216Z,86.54
2022-08-28T21:10:03.769Z,87.62
2022-08-28T21:12:54.984Z,87.53
2022-08-28T21:15:56.813Z,87.50
2022-08-28T21:19:15.305Z,88.18
2022-08-28T21:22:22.941Z,88.49
2022-08-28T21:25:25.291Z,88.90
2022-08-28T21:28:28.094Z,89.26
2022-08-28T21:31:29.838Z,90.38
2022-08-28T21:34:31.542Z,90.44
2022-08-28T21:37:33.962Z,91.12
2022-08-28T21:40:35.685Z,91.18
2022-08-28T21:43:38.682Z,90.84
2022-08-28T21:46:41.090Z,91.78
2022-08-28T21:49:42.955Z,91.84
2022-08-28T21:52:45.584Z,92.66
2022-08-28T21:55:51.928Z,93.00
2022-08-28T21:58:56.151Z,93.68
2022-08-28T22:01:58.595Z,93.35
2022-08-28T22:05:00.466Z,94.41
2022-08-28T22:08:02.456Z,95.13
2022-08-28T22:11:04.543Z,94.89
2022-08-28T22:14:06.258Z,94.95
2022-08-28T22:17:11.600Z,95.73
2022-08-28T22:20:14.096Z,95.42
2022-08-28T22:23:17.713Z,95.63
2022-08-28T22:26:21.113Z,95.95
2022-08-28T22:29:23.268Z,95.36
2022-08-28T22:32:26.808Z,96.05
2022-08-28T22:35:28.772Z,95.51
2022-08-28T22:38:30.801Z,95.31
2022-08-28T22:41:32.993Z,95.38
2022-08-28T22:44:34.920Z,94.62
2022-08-28T22:47:36.828Z,94.37
2022-08-28T22:50:38.556Z,93.78
2022-08-28T22:53:43.835Z,94.55
2022-08-28T22:56:45.689Z,92.42
2022-08-28T22:59:47.472Z,93.93
2022-08-28T23:02:50.050Z,94.25
2022-08-28T23:05:52.062Z,94.36
2022-08-28T23:08:53.884Z,94.42
2022-08-28T23:11:55.643Z,94.51
2022-08-28T23:15:04.538Z,93.55
2022-08-28T23:18:06.557Z,93.46
2022-08-28T23:21:10.008Z,93.35
2022-08-28T23:24:15.942Z,93.69
2022-08-28T23:27:36.304Z,94.26
2022-08-28T23:30:39.212Z,94.39
2022-08-28T23:33:41.510Z,93.53
2022-08-28T23:36:43.477Z,92.37
2022-08-28T23:39:45.860Z,93.62
2022-08-28T23:42:48.091Z,94.02
2022-08-28T23:45:50.506Z,94.48
2022-08-28T23:48:52.275Z,96.47
2022-08-28T23:51:54.131Z,94.67
2022-08-28T23:54:56.031Z,95.43
2022-08-28T23:57:57.958Z,95.82
